createdAt,value
2018-05-12T00:02:17.581Z,21.17
2018-05-12T00:05:20.081Z,18.80
2018-05-12T00:08:22.564Z,18.23
2018-05-12T00:11:24.998Z,19.33
2018-05-12T00:14:27.491Z,21.80
2018-05-12T00:17:29.988Z,19.90
2018-05-12T00:20:32.549Z,18.00
2018-05-12T00:23:35.113Z,18.10
2018-05-12T00:26:37.674Z,23.13
2018-05-12T00:29:40.143Z,20.87
2018-05-12T00:32:42.612Z,17.53
2018-05-12T00:35:45.059Z,19.57
2018-05-12T00:38:47.613Z,20.80
2018-05-12T00:41:50.073Z,18.30
2018-05-12T00:44:52.571Z,22.73
2018-05-12T00:47:55.096Z,16.77
2018-05-12T00:50:57.556Z,18.33
2018-05-12T00:54:00.002Z,16.17
2018-05-12T00:57:02.583Z,16.20
2018-05-12T01:00:05.046Z,15.87
2018-05-12T01:03:07.608Z,18.87
2018-05-12T01:06:10.209Z,26.73
2018-05-12T01:09:12.768Z,17.50
2018-05-12T01:12:15.253Z,15.53
2018-05-12T01:15:17.730Z,16.07
2018-05-12T01:18:20.220Z,16.60
2018-05-12T01:21:22.781Z,16.43
2018-05-12T01:24:25.355Z,13.07
2018-05-12T01:27:27.849Z,16.63
2018-05-12T01:30:30.343Z,13.90
2018-05-12T01:33:32.803Z,14.10
2018-05-12T01:36:35.273Z,16.53
2018-05-12T01:39:37.744Z,15.20
2018-05-12T01:42:40.197Z,15.23
2018-05-12T01:45:42.769Z,14.07
2018-05-12T01:48:45.333Z,13.90
2018-05-12T01:51:47.898Z,13.80
2018-05-12T01:54:50.393Z,13.10
2018-05-12T01:57:52.873Z,15.87
2018-05-12T02:00:55.372Z,14.40
2018-05-12T02:03:57.839Z,16.33
2018-05-12T02:07:00.403Z,13.70
2018-05-12T02:10:02.818Z,14.40
2018-05-12T02:13:05.304Z,18.47
2018-05-12T02:16:07.800Z,14.63
2018-05-12T02:19:10.357Z,17.37
2018-05-12T02:22:12.908Z,20.13
2018-05-12T02:25:15.378Z,17.77
2018-05-12T02:28:17.929Z,19.87
2018-05-12T02:31:20.493Z,15.67
2018-05-12T02:34:22.964Z,19.73
2018-05-12T02:37:25.409Z,16.70
2018-05-12T02:40:27.987Z,19.87
2018-05-12T02:43:30.447Z,19.70
2018-05-12T02:46:33.108Z,19.00
2018-05-12T02:49:35.552Z,17.47
2018-05-12T02:52:38.038Z,17.40
2018-05-12T02:55:40.494Z,14.60
2018-05-12T02:58:43.052Z,16.27
2018-05-12T03:01:45.535Z,15.00
2018-05-12T03:04:48.074Z,17.07
2018-05-12T03:07:50.639Z,15.13
2018-05-12T03:10:53.129Z,17.50
2018-05-12T03:13:55.659Z,19.23
2018-05-12T03:16:58.097Z,14.83
2018-05-12T03:20:00.679Z,18.57
2018-05-12T03:23:03.250Z,21.27
2018-05-12T03:26:05.770Z,16.77
2018-05-12T03:29:08.253Z,19.67
2018-05-12T03:32:10.792Z,16.00
2018-05-12T03:35:13.223Z,17.37
2018-05-12T03:38:15.693Z,18.80
2018-05-12T03:41:18.217Z,14.40
2018-05-12T03:44:20.779Z,17.50
2018-05-12T03:47:23.230Z,17.07
2018-05-12T03:50:25.748Z,18.27
2018-05-12T03:53:28.329Z,17.53
2018-05-12T03:56:30.773Z,16.30
2018-05-12T03:59:33.284Z,15.83
2018-05-12T04:02:35.732Z,16.50
2018-05-12T04:05:50.119Z,16.40
2018-05-12T04:09:04.405Z,14.80
2018-05-12T04:12:19.533Z,19.50
2018-05-12T04:15:21.990Z,14.50
2018-05-12T04:18:24.459Z,16.00
2018-05-12T04:21:26.938Z,17.37
2018-05-12T04:24:29.502Z,15.97
2018-05-12T04:27:31.967Z,14.63
2018-05-12T04:30:34.517Z,16.87
2018-05-12T04:33:37.044Z,14.70
2018-05-12T04:36:39.549Z,14.40
2018-05-12T04:39:42.087Z,17.77
2018-05-12T04:42:44.570Z,16.13
2018-05-12T04:45:47.028Z,16.50
2018-05-12T04:48:49.589Z,16.83
2018-05-12T04:51:52.033Z,17.67
2018-05-12T04:54:54.530Z,17.07
2018-05-12T04:57:57.180Z,17.30
2018-05-12T05:00:59.739Z,15.37
2018-05-12T05:04:02.217Z,21.37
2018-05-12T05:07:04.716Z,15.60
2018-05-12T05:10:07.232Z,18.33
2018-05-12T05:13:09.754Z,18.63
2018-05-12T05:16:12.251Z,14.67
2018-05-12T05:19:14.754Z,14.33
2018-05-12T05:22:17.269Z,18.00
2018-05-12T05:25:19.755Z,13.30
2018-05-12T05:28:22.295Z,15.60
2018-05-12T05:31:24.761Z,14.57
2018-05-12T05:34:27.215Z,14.40
2018-05-12T05:37:29.784Z,17.40
2018-05-12T05:40:32.240Z,16.30
2018-05-12T05:43:34.750Z,17.33
2018-05-12T05:46:37.200Z,17.93
2018-05-12T05:49:39.780Z,16.13
2018-05-12T05:52:42.253Z,14.10
2018-05-12T05:55:44.730Z,14.40
2018-05-12T05:58:47.179Z,14.53
2018-05-12T06:01:49.771Z,16.33
2018-05-12T06:04:52.340Z,17.73
2018-05-12T06:07:54.800Z,18.53
2018-05-12T06:10:57.276Z,18.27
2018-05-12T06:13:59.818Z,17.00
2018-05-12T06:17:02.314Z,15.10
2018-05-12T06:20:04.752Z,19.10
2018-05-12T06:23:07.818Z,17.83
2018-05-12T06:26:10.305Z,19.93
2018-05-12T06:29:12.824Z,17.17
2018-05-12T06:32:15.297Z,15.20
2018-05-12T06:35:17.858Z,19.63
2018-05-12T06:38:20.376Z,16.60
2018-05-12T06:41:22.912Z,17.07
2018-05-12T06:44:25.428Z,13.63
2018-05-12T06:47:27.935Z,17.73
2018-05-12T06:50:30.400Z,16.73
2018-05-12T06:53:32.898Z,18.63
2018-05-12T06:56:35.596Z,18.60
2018-05-12T06:59:38.059Z,14.17
2018-05-12T07:02:40.555Z,20.93
2018-05-12T07:05:43.022Z,20.70
2018-05-12T07:08:45.521Z,19.97
2018-05-12T07:11:48.007Z,18.53
2018-05-12T07:14:51.993Z,19.10
2018-05-12T07:17:54.481Z,21.33
2018-05-12T07:20:57.028Z,17.20
2018-05-12T07:23:59.516Z,19.33
2018-05-12T07:27:02.043Z,20.20
2018-05-12T07:30:04.508Z,17.83
2018-05-12T07:33:07.016Z,20.83
2018-05-12T07:36:09.633Z,15.40
2018-05-12T07:39:12.133Z,22.80
2018-05-12T07:42:14.592Z,14.93
2018-05-12T07:45:17.145Z,17.40
2018-05-12T07:48:19.637Z,17.63
2018-05-12T07:51:22.139Z,16.90
2018-05-12T07:54:24.701Z,15.03
2018-05-12T07:57:27.196Z,18.73
2018-05-12T08:00:29.826Z,18.20
2018-05-12T08:03:32.364Z,17.50
2018-05-12T08:06:34.794Z,17.50
2018-05-12T08:09:37.341Z,21.03
2018-05-12T08:12:39.797Z,22.63
2018-05-12T08:15:42.339Z,17.80
2018-05-12T08:18:44.897Z,18.00
2018-05-12T08:21:47.565Z,21.53
2018-05-12T08:24:50.082Z,21.17
2018-05-12T08:27:52.546Z,20.57
2018-05-12T08:30:55.044Z,23.00
2018-05-12T08:33:57.506Z,20.23
2018-05-12T08:37:00.011Z,18.77
2018-05-12T08:40:02.543Z,19.60
2018-05-12T08:43:05.127Z,26.73
2018-05-12T08:46:07.618Z,17.97
2018-05-12T08:49:10.086Z,19.63
2018-05-12T08:52:12.672Z,20.30
2018-05-12T08:55:15.199Z,19.20
2018-05-12T08:58:17.667Z,18.30
2018-05-12T09:01:20.173Z,19.77
2018-05-12T09:04:22.681Z,19.57
2018-05-12T09:07:25.161Z,23.07
2018-05-12T09:10:27.853Z,18.13
2018-05-12T09:13:30.412Z,18.60
2018-05-12T09:16:32.921Z,23.60
2018-05-12T09:19:35.370Z,20.40
2018-05-12T09:22:37.897Z,19.70
2018-05-12T09:25:40.488Z,16.70
2018-05-12T09:28:42.859Z,18.43
2018-05-12T09:31:45.768Z,22.40
2018-05-12T09:34:48.272Z,16.20
2018-05-12T09:37:50.728Z,15.57
2018-05-12T09:40:53.268Z,13.20
2018-05-12T09:43:55.797Z,14.30
2018-05-12T09:46:58.309Z,15.43
2018-05-12T09:50:00.839Z,15.50
2018-05-12T09:53:03.288Z,14.47
2018-05-12T09:56:05.789Z,15.07
2018-05-12T09:59:08.283Z,21.40
2018-05-12T10:02:10.802Z,14.53
2018-05-12T10:05:13.293Z,17.10
2018-05-12T10:08:15.747Z,10.77
2018-05-12T10:11:18.387Z,11.13
2018-05-12T10:14:20.868Z,11.77
2018-05-12T10:17:23.422Z,9.67
2018-05-12T10:20:25.868Z,13.10
2018-05-12T10:23:28.512Z,11.43
2018-05-12T10:26:31.038Z,10.43
2018-05-12T10:29:33.634Z,9.23
2018-05-12T10:32:36.152Z,10.63
2018-05-12T10:35:38.634Z,8.03
2018-05-12T10:38:41.125Z,6.93
2018-05-12T10:41:43.712Z,9.10
2018-05-12T10:44:46.337Z,7.93
2018-05-12T10:47:48.779Z,9.43
2018-05-12T10:50:51.274Z,7.87
2018-05-12T10:53:53.760Z,9.70
2018-05-12T10:56:56.243Z,12.40
2018-05-12T10:59:58.719Z,13.93
2018-05-12T11:03:01.196Z,9.50
2018-05-12T11:06:03.808Z,11.50
2018-05-12T11:09:06.287Z,10.20
2018-05-12T11:12:08.780Z,10.57
2018-05-12T11:15:11.281Z,12.10
2018-05-12T11:18:13.774Z,12.23
2018-05-12T11:21:16.250Z,11.47
2018-05-12T11:24:18.761Z,13.20
2018-05-12T11:27:21.206Z,11.43
2018-05-12T11:30:23.761Z,11.53
2018-05-12T11:33:26.344Z,11.80
2018-05-12T11:36:28.928Z,11.20
2018-05-12T11:39:31.456Z,12.63
2018-05-12T11:42:33.900Z,14.87
2018-05-12T11:45:36.377Z,13.10
2018-05-12T11:48:38.876Z,14.57
2018-05-12T11:51:41.381Z,11.80
2018-05-12T11:54:43.875Z,14.67
2018-05-12T11:57:46.376Z,15.43
2018-05-12T12:00:48.944Z,15.83
2018-05-12T12:03:51.622Z,16.50
2018-05-12T12:06:54.041Z,13.63
2018-05-12T12:09:56.504Z,23.50
2018-05-12T12:12:59.006Z,16.60
2018-05-12T12:16:01.485Z,15.37
2018-05-12T12:19:04.076Z,15.37
2018-05-12T12:22:06.636Z,14.47
2018-05-12T12:25:09.157Z,15.27
2018-05-12T12:28:11.655Z,14.87
2018-05-12T12:31:14.236Z,15.40
2018-05-12T12:34:16.705Z,13.40
2018-05-12T12:37:19.324Z,15.07
2018-05-12T12:40:21.858Z,16.07
2018-05-12T12:43:24.363Z,13.60
2018-05-12T12:46:26.845Z,16.97
2018-05-12T12:49:29.356Z,16.30
2018-05-12T12:52:31.861Z,13.93
2018-05-12T12:55:34.342Z,14.90
2018-05-12T12:58:36.831Z,16.87
2018-05-12T13:01:39.380Z,18.07
2018-05-12T13:04:41.856Z,15.43
2018-05-12T13:07:44.337Z,16.93
2018-05-12T13:10:46.815Z,14.20
2018-05-12T13:13:50.076Z,15.57
2018-05-12T13:16:52.579Z,16.57
2018-05-12T13:19:55.063Z,20.33
2018-05-12T13:22:57.550Z,17.30
2018-05-12T13:26:00.160Z,17.33
2018-05-12T13:29:02.611Z,16.30
2018-05-12T13:32:05.162Z,18.37
2018-05-12T13:35:07.674Z,19.53
2018-05-12T13:38:10.207Z,18.73
2018-05-12T13:41:12.686Z,20.53
2018-05-12T13:44:15.184Z,16.73
2018-05-12T13:47:17.765Z,16.93
2018-05-12T13:50:20.254Z,17.13
2018-05-12T13:53:22.766Z,21.70
2018-05-12T13:56:25.495Z,21.40
2018-05-12T13:59:27.977Z,17.73
2018-05-12T14:02:30.502Z,22.30
2018-05-12T14:05:32.986Z,23.53
2018-05-12T14:08:35.589Z,22.20
2018-05-12T14:11:38.145Z,20.40
2018-05-12T14:14:40.652Z,22.10
2018-05-12T14:17:43.152Z,19.87
2018-05-12T14:20:45.677Z,23.27
2018-05-12T14:23:48.232Z,20.27
2018-05-12T14:26:50.800Z,18.27
2018-05-12T14:29:53.318Z,20.07
2018-05-12T14:32:55.885Z,22.30
2018-05-12T14:35:58.489Z,19.63
2018-05-12T14:39:01.012Z,22.43
2018-05-12T14:42:03.716Z,25.87
2018-05-12T14:45:06.182Z,22.63
2018-05-12T14:48:08.766Z,20.93
2018-05-12T14:51:11.233Z,22.97
2018-05-12T14:54:13.732Z,22.70
2018-05-12T14:57:16.210Z,21.20
2018-05-12T15:00:18.787Z,22.40
2018-05-12T15:03:21.346Z,22.50
2018-05-12T15:06:23.894Z,23.10
2018-05-12T15:09:26.422Z,22.90
2018-05-12T15:12:28.932Z,23.37
2018-05-12T15:15:31.501Z,23.73
2018-05-12T15:18:34.036Z,27.90
2018-05-12T15:21:36.512Z,22.53
2018-05-12T15:24:39.027Z,21.83
2018-05-12T15:27:41.546Z,23.53
2018-05-12T15:30:44.054Z,22.83
2018-05-12T15:33:46.566Z,22.10
2018-05-12T15:36:49.047Z,21.70
2018-05-12T15:39:51.484Z,24.20
2018-05-12T15:42:53.996Z,24.70
2018-05-12T15:45:56.716Z,27.70
2018-05-12T15:48:59.232Z,27.10
2018-05-12T15:52:01.678Z,27.20
2018-05-12T15:55:04.192Z,28.07
2018-05-12T15:58:06.763Z,28.83
2018-05-12T16:01:09.328Z,27.17
2018-05-12T16:04:11.777Z,30.47
2018-05-12T16:07:14.243Z,29.03
2018-05-12T16:10:16.811Z,29.73
2018-05-12T16:13:19.305Z,28.13
2018-05-12T16:16:21.796Z,27.90
2018-05-12T16:19:24.286Z,29.90
2018-05-12T16:22:26.764Z,27.67
2018-05-12T16:25:29.253Z,28.80
2018-05-12T16:28:31.885Z,27.77
2018-05-12T16:31:34.390Z,29.10
2018-05-12T16:34:36.908Z,26.93
2018-05-12T16:37:39.415Z,31.03
2018-05-12T16:40:41.852Z,27.17
2018-05-12T16:43:44.332Z,30.47
2018-05-12T16:46:46.863Z,30.40
2018-05-12T16:49:49.401Z,29.40
2018-05-12T16:52:52.023Z,31.57
2018-05-12T16:55:54.531Z,34.63
2018-05-12T16:58:57.016Z,30.77
2018-05-12T17:01:59.524Z,33.97
2018-05-12T17:05:02.058Z,33.07
2018-05-12T17:08:04.594Z,32.70
2018-05-12T17:11:07.058Z,30.53
2018-05-12T17:14:09.615Z,31.40
2018-05-12T17:17:12.191Z,29.63
2018-05-12T17:20:14.643Z,31.37
2018-05-12T17:23:17.216Z,32.47
2018-05-12T17:26:19.767Z,31.83
2018-05-12T17:29:22.318Z,30.60
2018-05-12T17:32:24.883Z,32.60
2018-05-12T17:35:27.353Z,33.00
2018-05-12T17:38:29.900Z,32.43
2018-05-12T17:41:32.468Z,32.63
2018-05-12T17:44:35.028Z,32.00
2018-05-12T17:47:37.593Z,36.60
2018-05-12T17:50:40.079Z,37.17
2018-05-12T17:53:42.592Z,34.40
2018-05-12T17:56:45.187Z,29.77
2018-05-12T17:59:47.743Z,39.27
2018-05-12T18:02:50.239Z,36.13
2018-05-12T18:05:52.778Z,33.37
2018-05-12T18:08:55.258Z,32.77
2018-05-12T18:11:57.700Z,30.93
2018-05-12T18:15:00.204Z,31.17
2018-05-12T18:18:02.696Z,32.70
2018-05-12T18:21:05.388Z,33.60
2018-05-12T18:24:07.873Z,36.47
2018-05-12T18:27:10.429Z,33.07
2018-05-12T18:30:12.935Z,36.07
2018-05-12T18:33:15.524Z,37.43
2018-05-12T18:36:18.080Z,37.40
2018-05-12T18:39:20.554Z,40.43
2018-05-12T18:42:23.073Z,32.90
2018-05-12T18:45:25.533Z,31.43
2018-05-12T18:48:28.048Z,36.50
2018-05-12T18:51:30.527Z,34.23
2018-05-12T18:54:33.009Z,37.60
2018-05-12T18:57:35.527Z,34.10
2018-05-12T19:00:38.123Z,36.73
2018-05-12T19:03:40.590Z,41.73
2018-05-12T19:06:43.103Z,35.10
2018-05-12T19:09:45.628Z,38.43
2018-05-12T19:12:48.124Z,37.23
2018-05-12T19:15:50.639Z,37.23
2018-05-12T19:18:53.145Z,37.03
2018-05-12T19:21:55.728Z,36.93
2018-05-12T19:24:58.245Z,35.70
2018-05-12T19:28:00.721Z,37.63
2018-05-12T19:31:03.226Z,34.90
2018-05-12T19:34:05.701Z,34.07
2018-05-12T19:37:08.201Z,40.50
2018-05-12T19:40:10.703Z,35.93
2018-05-12T19:43:13.298Z,37.53
2018-05-12T19:46:15.880Z,41.00
2018-05-12T19:49:18.382Z,35.20
2018-05-12T19:52:20.921Z,43.00
2018-05-12T19:55:23.415Z,42.27
2018-05-12T19:58:25.879Z,42.97
2018-05-12T20:01:28.461Z,43.07
2018-05-12T20:04:31.180Z,42.57
2018-05-12T20:07:33.709Z,43.83
2018-05-12T20:10:36.203Z,40.13
2018-05-12T20:13:38.710Z,43.87
2018-05-12T20:16:41.273Z,42.07
2018-05-12T20:19:43.730Z,44.07
2018-05-12T20:22:46.247Z,44.77
2018-05-12T20:25:48.806Z,46.77
2018-05-12T20:28:51.352Z,39.13
2018-05-12T20:31:53.892Z,43.20
2018-05-12T20:34:56.430Z,45.47
2018-05-12T20:37:59.020Z,44.00
2018-05-12T20:41:01.515Z,43.30
2018-05-12T20:44:03.955Z,45.10
2018-05-12T20:47:06.416Z,46.73
2018-05-12T20:50:08.805Z,51.43
2018-05-12T20:53:11.429Z,45.23
2018-05-12T20:56:13.811Z,44.07
2018-05-12T20:59:16.308Z,41.83
2018-05-12T21:02:18.745Z,49.70
2018-05-12T21:05:21.255Z,48.50
2018-05-12T21:08:23.822Z,46.70
2018-05-12T21:11:26.414Z,42.90
2018-05-12T21:14:28.752Z,50.40
2018-05-12T21:17:31.266Z,44.57
2018-05-12T21:20:33.754Z,41.70
2018-05-12T21:23:36.289Z,43.50
2018-05-12T21:26:38.800Z,43.70
2018-05-12T21:29:41.320Z,46.97
2018-05-12T21:32:43.934Z,47.43
2018-05-12T21:35:46.466Z,45.17
2018-05-12T21:38:48.955Z,51.90
2018-05-12T21:41:51.465Z,49.03
2018-05-12T21:44:54.035Z,54.73
2018-05-12T21:47:56.796Z,51.77
2018-05-12T21:50:59.707Z,47.63
2018-05-12T21:54:02.482Z,45.03
2018-05-12T21:57:05.331Z,50.80
2018-05-12T22:00:07.976Z,47.57
2018-05-12T22:03:10.521Z,44.37
2018-05-12T22:06:13.156Z,47.30
2018-05-12T22:09:15.750Z,50.03
2018-05-12T22:12:18.405Z,52.10
2018-05-12T22:15:21.025Z,54.03
2018-05-12T22:18:23.566Z,48.47
2018-05-12T22:21:26.204Z,49.30
2018-05-12T22:24:29.115Z,51.93
2018-05-12T22:27:31.714Z,51.10
2018-05-12T22:30:34.265Z,54.17
2018-05-12T22:33:36.761Z,47.00
2018-05-12T22:36:39.312Z,51.60
2018-05-12T22:39:41.841Z,53.20
2018-05-12T22:42:44.283Z,47.97
2018-05-12T22:45:46.771Z,52.67
2018-05-12T22:48:49.271Z,45.03
2018-05-12T22:51:51.813Z,48.00
2018-05-12T22:54:54.342Z,50.60
2018-05-12T22:57:56.875Z,47.40
2018-05-12T23:00:59.330Z,55.93
2018-05-12T23:04:01.837Z,50.47
2018-05-12T23:07:04.323Z,49.60
2018-05-12T23:10:06.806Z,50.20
2018-05-12T23:13:09.316Z,56.67
2018-05-12T23:16:11.965Z,53.10
2018-05-12T23:19:14.441Z,49.83
2018-05-12T23:22:17.044Z,45.80
2018-05-12T23:25:19.551Z,44.30
2018-05-12T23:28:22.052Z,43.97
2018-05-12T23:31:24.661Z,49.07
2018-05-12T23:34:27.132Z,49.60
2018-05-12T23:37:29.616Z,48.00
2018-05-12T23:40:32.096Z,45.83
2018-05-12T23:43:34.581Z,43.57
2018-05-12T23:46:37.058Z,47.27
2018-05-12T23:49:39.505Z,44.80
2018-05-12T23:52:44.020Z,49.17
2018-05-12T23:55:46.586Z,50.93
2018-05-12T23:58:49.082Z,47.63
